Relevés horaires St-Hubert (Belgique)


Relevés horaires à St-Hubert - Vendredi 20 Avr. 2018
Heure UTC1 Température [°C] Vent [km/h] Hum. [%] Pres.4 [hPa] Visi. [Km] Nébu. [octa] Préc.5 [mm] Cond.
2m. Res. Ros. Dir.2 Vit. Moy. Raf.3
23:00 15.5 15.5 9.8 NE 7.4 7.4 9.3 69 1022.6(0.1/3h) 21 0/8 -- --
22:00 16.8 16.8 9.9 NNE 7.4 7.4 9.3 64 1022.4(0.3/3h) 24 0/8 -- --
21:00 18.4 18.4 9.2 N 5.6 7.4 63.0 55 1021.9(0.4/3h) 35 0/8 -- --
20:00 19.3 19.3 8.9 N 5.6 5.6 63.0 51 1021.8(0.4/3h) 40 0/8 -- --
19:00 20.7 20.7 8.8 NNO 5.6 5.6 9.3 46 1021.2(-0.2/3h) 35 0/8 -- --
18:00 22.1 22.1 9.0 NNO 5.6 7.4 13.0 43 1020.6(-0.7/3h) 35 0/8 0/12h
--
17:00 23.4 23.4 8.4 NO 5.6 5.6 9.3 38 1020.5(-1.1/3h) 27 0/8 -- --
16:00 22.9 22.9 11.2 O 3.7 5.6 11.1 48 1020.8(-1.2/3h) 29 0/8 -- --
15:00 24.0 24.0 8.0 NNO 1.9 7.4 13.0 36 1021(-1.4/3h) 30 0/8 -- --
14:00 23.9 23.9 9.3 O 5.6 0.0 0.0 39 1021.5(-1.2/3h) 35 0/8 -- --
13:00 23.5 23.5 7.1 NNO 0.0 5.6 13.0 35 1022.1(-0.9/3h) 30 0/8 -- --
12:00 23.1 23.1 7.0 NNO 5.6 7.4 13.0 35 1022.7(-0.4/3h) 27 0/8 0/6h
--
11:00 22.8 22.8 7.4 NNO 0.0 0.0 0.0 37 1023.1(0.2/3h) 30 0/8 -- --
10:00 22.5 22.5 6.8 NNO 0.0 0.0 0.0 36 1023.2(0.3/3h) 29 0/8 -- --
09:00 21.7 21.7 8.1 NNO 0.0 3.7 5.6 42 1023.3(0.3/3h) 29 0/8 -- --
08:00 20.8 20.8 9.1 NNO 3.7 3.7 5.6 47 1023.3(0.2/3h) 30 0/8 -- --
07:00 20.1 20.1 12.5 NNO 0.0 1.9 1.9 62 1023.3(0.2/3h) 30 0/8 -- --
06:00 17.6 17.6 6.1 ONO 1.9 5.6 5.6 47 1024(-0.1/3h) 40 0/8 0/12h
--
05:00 14.9 14.9 4.9 NNO 0.0 1.9 1.9 51 1024.5(-0.5/3h) 45 0/8 -- --
04:00 14.5 14.5 5.1 S 1.9 3.7 3.7 53 1024.5(-0.9/3h) 45 0/8 -- --
03:00 14.4 14.4 6.7 SE 3.7 5.6 5.6 60 1024.9(-0.8/3h) 45 0/8 -- --
02:00 15.8 15.8 7.7 ESE 3.7 3.7 5.6 59 1024.8(-0.6/3h) 45 0/8 -- --
01:00 15.7 15.7 6.8 ESE 3.7 5.6 5.6 55 1025.1(-0.4/3h) 45 0/8 -- --
00:00 14.3 14.3 6.4 NNO 0.0 3.7 5.6 59 1025.8(-0.3/3h) 45 0/8 0/6h
0/24h
--

1 Coordinated Universal Time. Actuellement il est 12:00 locale et 10:00 UTC.

2 Le vent souffle depuis la direction indiquée vers la direction oposée.

3 Les rafales max. sont disponible 40 min après l'heure du relevé.

4 Pour les stations d'altitude (plus de 600m) le géopotentiel du niveau le plus proche de la pression obligatoire est indiqué.

5 Les stations disposant d'un diffuseur peuvent indiquer "trace". Cela signifie que des précipitations ont touchés le sol mais que la quantité est inférieure à 0.1 mm.

Récapitulatif de la journée
Température [°C] Vent [km/h] Ensoleillement4 [h] Precipitations totale5 [mm] Pression [Hpa]
Min1 Max.2 Moy.3 Max. Min Max.
13.3 24.5 4.6 63.0 0 h 0 min 0 1020.5 1025.8

1 Température minimale relevée entre 18:00 UTC la veille et 18:00 UTC le jour donné.

2 Température maximale relevée entre 06:00 UTC le jour donné et 06:00 UTC le lendemain.

3 Vent moyen de la journée basé sur les relevés horaires.

4 Ensoleillement en heures relevé entre 06:00 UTC la veille et 06:00 UTC le jour donné.

5 Précipitations totales tombées entre 06:00 UTC la jour donné et 06:00 UTC le lendemain.

Graphiques horaires